sensor_id;sensor_type;location;lat;lon;timestamp;P1;durP1;ratioP1;P2;durP2;ratioP2
27071;SDS011;14613;46.308;25.288;2022-09-01T00:01:14;6.82;;;5.63;;
27071;SDS011;14613;46.308;25.288;2022-09-01T00:03:50;7.85;;;5.68;;
27071;SDS011;14613;46.308;25.288;2022-09-01T00:06:18;10.02;;;6.78;;
27071;SDS011;14613;46.308;25.288;2022-09-01T00:08:50;11.85;;;7.07;;
27071;SDS011;14613;46.308;25.288;2022-09-01T00:11:18;12.10;;;6.22;;
27071;SDS011;14613;46.308;25.288;2022-09-01T00:13:45;8.38;;;6.40;;
27071;SDS011;14613;46.308;25.288;2022-09-01T00:16:12;10.55;;;5.97;;
27071;SDS011;14613;46.308;25.288;2022-09-01T00:18:40;11.35;;;6.90;;
27071;SDS011;14613;46.308;25.288;2022-09-01T00:21:08;9.32;;;6.93;;
27071;SDS011;14613;46.308;25.288;2022-09-01T00:23:35;8.30;;;6.90;;
27071;SDS011;14613;46.308;25.288;2022-09-01T00:26:01;9.07;;;5.95;;
27071;SDS011;14613;46.308;25.288;2022-09-01T00:28:27;10.05;;;6.82;;
27071;SDS011;14613;46.308;25.288;2022-09-01T00:30:52;8.00;;;5.72;;
27071;SDS011;14613;46.308;25.288;2022-09-01T00:33:18;7.78;;;6.07;;
27071;SDS011;14613;46.308;25.288;2022-09-01T00:35:44;8.75;;;6.50;;
27071;SDS011;14613;46.308;25.288;2022-09-01T00:38:10;9.80;;;6.65;;
27071;SDS011;14613;46.308;25.288;2022-09-01T00:40:36;10.77;;;6.20;;
27071;SDS011;14613;46.308;25.288;2022-09-01T00:43:22;10.85;;;6.35;;
27071;SDS011;14613;46.308;25.288;2022-09-01T00:46:00;11.05;;;6.22;;
27071;SDS011;14613;46.308;25.288;2022-09-01T00:48:27;14.13;;;6.68;;
27071;SDS011;14613;46.308;25.288;2022-09-01T00:50:53;13.02;;;6.70;;
27071;SDS011;14613;46.308;25.288;2022-09-01T00:53:19;11.90;;;6.65;;
27071;SDS011;14613;46.308;25.288;2022-09-01T00:55:45;9.73;;;6.25;;
27071;SDS011;14613;46.308;25.288;2022-09-01T00:58:10;10.15;;;5.95;;
27071;SDS011;14613;46.308;25.288;2022-09-01T01:00:37;12.52;;;5.82;;
27071;SDS011;14613;46.308;25.288;2022-09-01T01:03:11;9.43;;;5.82;;
27071;SDS011;14613;46.308;25.288;2022-09-01T01:05:43;8.88;;;6.05;;
27071;SDS011;14613;46.308;25.288;2022-09-01T01:08:19;9.23;;;6.13;;
27071;SDS011;14613;46.308;25.288;2022-09-01T01:10:58;9.88;;;6.93;;
27071;SDS011;14613;46.308;25.288;2022-09-01T01:13:29;11.00;;;6.43;;
27071;SDS011;14613;46.308;25.288;2022-09-01T01:16:00;11.68;;;6.40;;
27071;SDS011;14613;46.308;25.288;2022-09-01T01:18:27;10.38;;;6.43;;
27071;SDS011;14613;46.308;25.288;2022-09-01T01:20:58;8.63;;;6.20;;
27071;SDS011;14613;46.308;25.288;2022-09-01T01:23:59;12.15;;;5.80;;
27071;SDS011;14613;46.308;25.288;2022-09-01T01:26:42;14.98;;;7.40;;
27071;SDS011;14613;46.308;25.288;2022-09-01T01:29:08;11.70;;;6.35;;
27071;SDS011;14613;46.308;25.288;2022-09-01T01:31:34;9.93;;;5.82;;
27071;SDS011;14613;46.308;25.288;2022-09-01T01:34:00;7.13;;;5.97;;
27071;SDS011;14613;46.308;25.288;2022-09-01T01:36:30;13.13;;;6.15;;
27071;SDS011;14613;46.308;25.288;2022-09-01T01:39:10;8.52;;;5.95;;
27071;SDS011;14613;46.308;25.288;2022-09-01T01:41:39;8.15;;;6.05;;
27071;SDS011;14613;46.308;25.288;2022-09-01T01:44:08;8.82;;;5.90;;
27071;SDS011;14613;46.308;25.288;2022-09-01T01:46:38;9.48;;;5.40;;
27071;SDS011;14613;46.308;25.288;2022-09-01T01:49:07;10.05;;;6.03;;
27071;SDS011;14613;46.308;25.288;2022-09-01T01:51:33;11.88;;;5.78;;
27071;SDS011;14613;46.308;25.288;2022-09-01T01:53:59;9.75;;;6.28;;
27071;SDS011;14613;46.308;25.288;2022-09-01T01:56:30;12.57;;;5.85;;
27071;SDS011;14613;46.308;25.288;2022-09-01T01:58:57;12.73;;;6.45;;
27071;SDS011;14613;46.308;25.288;2022-09-01T02:01:27;9.10;;;5.60;;
27071;SDS011;14613;46.308;25.288;2022-09-01T02:03:56;8.77;;;5.35;;
27071;SDS011;14613;46.308;25.288;2022-09-01T02:06:24;8.20;;;5.95;;
27071;SDS011;14613;46.308;25.288;2022-09-01T02:08:52;6.82;;;5.30;;
27071;SDS011;14613;46.308;25.288;2022-09-01T02:11:22;6.40;;;5.45;;
27071;SDS011;14613;46.308;25.288;2022-09-01T02:13:50;8.60;;;4.82;;
27071;SDS011;14613;46.308;25.288;2022-09-01T02:16:20;7.85;;;6.10;;
27071;SDS011;14613;46.308;25.288;2022-09-01T02:18:47;14.20;;;5.70;;
27071;SDS011;14613;46.308;25.288;2022-09-01T02:21:18;7.72;;;5.78;;
27071;SDS011;14613;46.308;25.288;2022-09-01T02:23:45;13.00;;;6.55;;
27071;SDS011;14613;46.308;25.288;2022-09-01T02:26:14;14.80;;;6.53;;
27071;SDS011;14613;46.308;25.288;2022-09-01T02:28:41;12.63;;;6.93;;
27071;SDS011;14613;46.308;25.288;2022-09-01T02:31:09;14.70;;;5.75;;
27071;SDS011;14613;46.308;25.288;2022-09-01T02:33:36;8.95;;;6.82;;
27071;SDS011;14613;46.308;25.288;2022-09-01T02:36:08;9.35;;;6.93;;
27071;SDS011;14613;46.308;25.288;2022-09-01T02:38:37;10.55;;;6.35;;
27071;SDS011;14613;46.308;25.288;2022-09-01T02:41:06;10.38;;;7.00;;
27071;SDS011;14613;46.308;25.288;2022-09-01T02:43:32;15.68;;;7.72;;
27071;SDS011;14613;46.308;25.288;2022-09-01T02:45:59;10.52;;;6.38;;
27071;SDS011;14613;46.308;25.288;2022-09-01T02:48:26;8.98;;;6.65;;
27071;SDS011;14613;46.308;25.288;2022-09-01T02:50:57;8.43;;;6.40;;
27071;SDS011;14613;46.308;25.288;2022-09-01T02:53:24;8.93;;;6.22;;
27071;SDS011;14613;46.308;25.288;2022-09-01T02:55:50;11.05;;;6.43;;
27071;SDS011;14613;46.308;25.288;2022-09-01T02:58:16;9.55;;;6.10;;
27071;SDS011;14613;46.308;25.288;2022-09-01T03:00:43;11.68;;;5.93;;
27071;SDS011;14613;46.308;25.288;2022-09-01T03:03:09;9.73;;;6.07;;
27071;SDS011;14613;46.308;25.288;2022-09-01T03:05:41;7.47;;;5.32;;
27071;SDS011;14613;46.308;25.288;2022-09-01T03:08:08;9.07;;;5.57;;
27071;SDS011;14613;46.308;25.288;2022-09-01T03:10:39;7.05;;;5.93;;
27071;SDS011;14613;46.308;25.288;2022-09-01T03:13:07;10.05;;;6.00;;
27071;SDS011;14613;46.308;25.288;2022-09-01T03:15:34;6.95;;;5.10;;
27071;SDS011;14613;46.308;25.288;2022-09-01T03:18:02;10.60;;;5.85;;
27071;SDS011;14613;46.308;25.288;2022-09-01T03:20:30;13.07;;;5.28;;
27071;SDS011;14613;46.308;25.288;2022-09-01T03:22:59;13.15;;;6.80;;
27071;SDS011;14613;46.308;25.288;2022-09-01T03:25:25;16.88;;;7.35;;
27071;SDS011;14613;46.308;25.288;2022-09-01T03:27:53;16.33;;;7.70;;
27071;SDS011;14613;46.308;25.288;2022-09-01T03:30:21;12.55;;;7.78;;
27071;SDS011;14613;46.308;25.288;2022-09-01T03:32:47;8.75;;;6.88;;
27071;SDS011;14613;46.308;25.288;2022-09-01T03:35:13;20.02;;;7.07;;
27071;SDS011;14613;46.308;25.288;2022-09-01T03:37:39;18.92;;;6.32;;
27071;SDS011;14613;46.308;25.288;2022-09-01T03:40:08;15.88;;;7.38;;
27071;SDS011;14613;46.308;25.288;2022-09-01T03:42:35;10.75;;;6.00;;
27071;SDS011;14613;46.308;25.288;2022-09-01T03:45:02;7.55;;;5.55;;
27071;SDS011;14613;46.308;25.288;2022-09-01T03:47:36;12.57;;;5.47;;
27071;SDS011;14613;46.308;25.288;2022-09-01T03:50:07;9.57;;;6.07;;
27071;SDS011;14613;46.308;25.288;2022-09-01T03:52:46;9.80;;;6.10;;
27071;SDS011;14613;46.308;25.288;2022-09-01T03:55:22;8.63;;;5.38;;
27071;SDS011;14613;46.308;25.288;2022-09-01T03:57:56;19.90;;;5.55;;
27071;SDS011;14613;46.308;25.288;2022-09-01T04:00:25;18.17;;;5.60;;
27071;SDS011;14613;46.308;25.288;2022-09-01T04:02:55;9.75;;;5.72;;
27071;SDS011;14613;46.308;25.288;2022-09-01T04:05:26;9.02;;;5.75;;
27071;SDS011;14613;46.308;25.288;2022-09-01T04:07:57;7.32;;;5.13;;
27071;SDS011;14613;46.308;25.288;2022-09-01T04:10:28;8.15;;;5.10;;
27071;SDS011;14613;46.308;25.288;2022-09-01T04:12:56;9.93;;;6.05;;
27071;SDS011;14613;46.308;25.288;2022-09-01T04:15:24;15.68;;;5.35;;
27071;SDS011;14613;46.308;25.288;2022-09-01T04:17:51;13.20;;;5.63;;
27071;SDS011;14613;46.308;25.288;2022-09-01T04:20:44;10.50;;;5.55;;
27071;SDS011;14613;46.308;25.288;2022-09-01T04:23:22;15.45;;;6.22;;
27071;SDS011;14613;46.308;25.288;2022-09-01T04:25:54;24.02;;;9.98;;
27071;SDS011;14613;46.308;25.288;2022-09-01T04:28:24;23.35;;;10.27;;
27071;SDS011;14613;46.308;25.288;2022-09-01T04:30:57;28.55;;;12.10;;
27071;SDS011;14613;46.308;25.288;2022-09-01T04:33:26;29.02;;;12.32;;
27071;SDS011;14613;46.308;25.288;2022-09-01T04:36:01;38.30;;;12.70;;
27071;SDS011;14613;46.308;25.288;2022-09-01T04:38:31;68.15;;;21.17;;
27071;SDS011;14613;46.308;25.288;2022-09-01T04:41:04;81.15;;;27.58;;
27071;SDS011;14613;46.308;25.288;2022-09-01T04:43:31;42.38;;;17.20;;
27071;SDS011;14613;46.308;25.288;2022-09-01T04:45:57;84.88;;;32.30;;
27071;SDS011;14613;46.308;25.288;2022-09-01T04:48:23;94.47;;;35.22;;
27071;SDS011;14613;46.308;25.288;2022-09-01T04:50:51;76.82;;;27.45;;
27071;SDS011;14613;46.308;25.288;2022-09-01T04:53:18;48.63;;;21.15;;
27071;SDS011;14613;46.308;25.288;2022-09-01T04:55:44;32.90;;;12.93;;
27071;SDS011;14613;46.308;25.288;2022-09-01T04:58:12;27.60;;;12.13;;
27071;SDS011;14613;46.308;25.288;2022-09-01T05:00:42;21.55;;;9.82;;
27071;SDS011;14613;46.308;25.288;2022-09-01T05:03:09;19.40;;;9.25;;
27071;SDS011;14613;46.308;25.288;2022-09-01T05:05:40;15.00;;;8.32;;
27071;SDS011;14613;46.308;25.288;2022-09-01T05:08:08;19.80;;;8.40;;
27071;SDS011;14613;46.308;25.288;2022-09-01T05:10:38;18.05;;;7.07;;
27071;SDS011;14613;46.308;25.288;2022-09-01T05:13:06;13.38;;;6.75;;
27071;SDS011;14613;46.308;25.288;2022-09-01T05:15:37;18.65;;;6.57;;
27071;SDS011;14613;46.308;25.288;2022-09-01T05:18:10;15.65;;;6.45;;
27071;SDS011;14613;46.308;25.288;2022-09-01T05:20:41;10.93;;;7.55;;
27071;SDS011;14613;46.308;25.288;2022-09-01T05:23:10;12.13;;;5.72;;
27071;SDS011;14613;46.308;25.288;2022-09-01T05:25:38;8.25;;;5.53;;
27071;SDS011;14613;46.308;25.288;2022-09-01T05:28:05;16.25;;;5.80;;
27071;SDS011;14613;46.308;25.288;2022-09-01T05:30:34;19.02;;;7.43;;
27071;SDS011;14613;46.308;25.288;2022-09-01T05:33:01;17.67;;;6.55;;
27071;SDS011;14613;46.308;25.288;2022-09-01T05:35:30;12.57;;;6.40;;
27071;SDS011;14613;46.308;25.288;2022-09-01T05:37:56;17.45;;;6.32;;
27071;SDS011;14613;46.308;25.288;2022-09-01T05:40:23;10.73;;;6.65;;
27071;SDS011;14613;46.308;25.288;2022-09-01T05:42:49;7.65;;;5.95;;
27071;SDS011;14613;46.308;25.288;2022-09-01T05:45:17;7.20;;;5.75;;
27071;SDS011;14613;46.308;25.288;2022-09-01T05:47:44;13.60;;;5.88;;
27071;SDS011;14613;46.308;25.288;2022-09-01T05:50:10;8.50;;;6.53;;
27071;SDS011;14613;46.308;25.288;2022-09-01T05:52:37;21.85;;;6.53;;
27071;SDS011;14613;46.308;25.288;2022-09-01T05:55:04;9.32;;;5.68;;
27071;SDS011;14613;46.308;25.288;2022-09-01T05:57:33;15.30;;;5.25;;
27071;SDS011;14613;46.308;25.288;2022-09-01T06:00:00;7.97;;;4.47;;
27071;SDS011;14613;46.308;25.288;2022-09-01T06:02:36;10.50;;;4.55;;
27071;SDS011;14613;46.308;25.288;2022-09-01T06:05:03;7.00;;;4.32;;
27071;SDS011;14613;46.308;25.288;2022-09-01T06:07:30;7.78;;;4.70;;
27071;SDS011;14613;46.308;25.288;2022-09-01T06:09:56;6.30;;;4.93;;
27071;SDS011;14613;46.308;25.288;2022-09-01T06:12:23;7.63;;;4.28;;
27071;SDS011;14613;46.308;25.288;2022-09-01T06:14:51;12.77;;;5.35;;
27071;SDS011;14613;46.308;25.288;2022-09-01T06:17:20;6.38;;;4.90;;
27071;SDS011;14613;46.308;25.288;2022-09-01T06:19:48;5.25;;;4.05;;
27071;SDS011;14613;46.308;25.288;2022-09-01T06:22:17;14.27;;;5.35;;
27071;SDS011;14613;46.308;25.288;2022-09-01T06:24:44;9.50;;;3.97;;
27071;SDS011;14613;46.308;25.288;2022-09-01T06:27:09;6.35;;;3.95;;
27071;SDS011;14613;46.308;25.288;2022-09-01T06:29:36;9.18;;;3.72;;
27071;SDS011;14613;46.308;25.288;2022-09-01T06:32:06;10.38;;;4.40;;
27071;SDS011;14613;46.308;25.288;2022-09-01T06:34:42;7.63;;;3.53;;
27071;SDS011;14613;46.308;25.288;2022-09-01T06:37:11;6.05;;;3.50;;
27071;SDS011;14613;46.308;25.288;2022-09-01T06:39:37;8.73;;;4.30;;
27071;SDS011;14613;46.308;25.288;2022-09-01T06:42:04;7.22;;;4.13;;
27071;SDS011;14613;46.308;25.288;2022-09-01T06:44:30;11.68;;;4.00;;
27071;SDS011;14613;46.308;25.288;2022-09-01T06:46:56;10.65;;;3.83;;
27071;SDS011;14613;46.308;25.288;2022-09-01T06:49:23;4.75;;;3.33;;
27071;SDS011;14613;46.308;25.288;2022-09-01T06:51:56;6.13;;;3.95;;
27071;SDS011;14613;46.308;25.288;2022-09-01T06:54:26;6.20;;;3.33;;
27071;SDS011;14613;46.308;25.288;2022-09-01T06:56:54;4.35;;;3.15;;
27071;SDS011;14613;46.308;25.288;2022-09-01T06:59:21;4.85;;;3.60;;
27071;SDS011;14613;46.308;25.288;2022-09-01T07:01:47;9.57;;;3.58;;
27071;SDS011;14613;46.308;25.288;2022-09-01T07:04:15;10.02;;;3.60;;
27071;SDS011;14613;46.308;25.288;2022-09-01T07:06:45;9.60;;;3.40;;
27071;SDS011;14613;46.308;25.288;2022-09-01T07:09:14;21.85;;;3.92;;
27071;SDS011;14613;46.308;25.288;2022-09-01T07:11:39;12.68;;;4.38;;
27071;SDS011;14613;46.308;25.288;2022-09-01T07:14:05;5.13;;;3.60;;
27071;SDS011;14613;46.308;25.288;2022-09-01T07:16:35;10.02;;;4.00;;
27071;SDS011;14613;46.308;25.288;2022-09-01T07:19:04;6.20;;;4.45;;
27071;SDS011;14613;46.308;25.288;2022-09-01T07:21:34;10.05;;;4.22;;
27071;SDS011;14613;46.308;25.288;2022-09-01T07:24:00;7.90;;;3.63;;
27071;SDS011;14613;46.308;25.288;2022-09-01T07:26:28;7.38;;;4.53;;
27071;SDS011;14613;46.308;25.288;2022-09-01T07:28:54;4.55;;;3.38;;
27071;SDS011;14613;46.308;25.288;2022-09-01T07:31:23;9.75;;;3.58;;
27071;SDS011;14613;46.308;25.288;2022-09-01T07:33:52;6.70;;;3.85;;
27071;SDS011;14613;46.308;25.288;2022-09-01T07:36:19;9.02;;;4.13;;
27071;SDS011;14613;46.308;25.288;2022-09-01T07:38:45;11.65;;;4.18;;
27071;SDS011;14613;46.308;25.288;2022-09-01T07:41:15;6.03;;;4.07;;
27071;SDS011;14613;46.308;25.288;2022-09-01T07:43:41;5.88;;;3.00;;
27071;SDS011;14613;46.308;25.288;2022-09-01T07:46:09;9.60;;;3.17;;
27071;SDS011;14613;46.308;25.288;2022-09-01T07:48:35;7.63;;;3.63;;
27071;SDS011;14613;46.308;25.288;2022-09-01T07:51:01;6.57;;;3.70;;
27071;SDS011;14613;46.308;25.288;2022-09-01T07:53:29;3.92;;;2.60;;
27071;SDS011;14613;46.308;25.288;2022-09-01T07:55:58;3.25;;;2.85;;
27071;SDS011;14613;46.308;25.288;2022-09-01T07:58:26;3.00;;;2.70;;
27071;SDS011;14613;46.308;25.288;2022-09-01T08:00:54;8.23;;;3.65;;
27071;SDS011;14613;46.308;25.288;2022-09-01T08:03:23;3.10;;;2.80;;
27071;SDS011;14613;46.308;25.288;2022-09-01T08:05:49;7.50;;;2.88;;
27071;SDS011;14613;46.308;25.288;2022-09-01T08:08:21;3.20;;;2.90;;
27071;SDS011;14613;46.308;25.288;2022-09-01T08:10:48;3.35;;;2.83;;
27071;SDS011;14613;46.308;25.288;2022-09-01T08:13:14;5.13;;;3.13;;
27071;SDS011;14613;46.308;25.288;2022-09-01T08:15:41;2.78;;;2.45;;
27071;SDS011;14613;46.308;25.288;2022-09-01T08:18:07;7.40;;;3.15;;
27071;SDS011;14613;46.308;25.288;2022-09-01T08:20:33;6.07;;;2.58;;
27071;SDS011;14613;46.308;25.288;2022-09-01T08:23:04;3.05;;;2.75;;
27071;SDS011;14613;46.308;25.288;2022-09-01T08:25:31;3.60;;;3.30;;
27071;SDS011;14613;46.308;25.288;2022-09-01T08:27:58;4.50;;;2.90;;
27071;SDS011;14613;46.308;25.288;2022-09-01T08:30:25;5.10;;;2.63;;
27071;SDS011;14613;46.308;25.288;2022-09-01T08:32:52;4.57;;;3.35;;
27071;SDS011;14613;46.308;25.288;2022-09-01T08:35:18;4.47;;;3.40;;
27071;SDS011;14613;46.308;25.288;2022-09-01T08:37:44;3.35;;;2.53;;
27071;SDS011;14613;46.308;25.288;2022-09-01T08:40:13;4.97;;;2.53;;
27071;SDS011;14613;46.308;25.288;2022-09-01T08:47:46;3.00;;;2.70;;
27071;SDS011;14613;46.308;25.288;2022-09-01T08:50:15;3.03;;;2.72;;
27071;SDS011;14613;46.308;25.288;2022-09-01T08:52:45;3.08;;;2.78;;
27071;SDS011;14613;46.308;25.288;2022-09-01T08:55:18;3.15;;;2.80;;
27071;SDS011;14613;46.308;25.288;2022-09-01T08:57:51;4.35;;;2.40;;
27071;SDS011;14613;46.308;25.288;2022-09-01T09:00:21;3.80;;;2.65;;
27071;SDS011;14613;46.308;25.288;2022-09-01T09:10:48;4.43;;;2.80;;
27071;SDS011;14613;46.308;25.288;2022-09-01T09:19:07;3.30;;;2.65;;
27071;SDS011;14613;46.308;25.288;2022-09-01T09:21:34;2.97;;;2.63;;
27071;SDS011;14613;46.308;25.288;2022-09-01T09:26:50;5.15;;;2.78;;
27071;SDS011;14613;46.308;25.288;2022-09-01T09:29:18;3.50;;;2.70;;
27071;SDS011;14613;46.308;25.288;2022-09-01T09:31:46;3.80;;;2.65;;
27071;SDS011;14613;46.308;25.288;2022-09-01T09:34:28;3.17;;;2.90;;
27071;SDS011;14613;46.308;25.288;2022-09-01T09:36:59;5.28;;;2.88;;
27071;SDS011;14613;46.308;25.288;2022-09-01T09:39:39;3.03;;;2.72;;
27071;SDS011;14613;46.308;25.288;2022-09-01T09:42:06;5.88;;;3.10;;
27071;SDS011;14613;46.308;25.288;2022-09-01T09:44:39;3.22;;;2.47;;
27071;SDS011;14613;46.308;25.288;2022-09-01T09:47:09;5.13;;;2.40;;
27071;SDS011;14613;46.308;25.288;2022-09-01T09:52:36;4.47;;;2.33;;
27071;SDS011;14613;46.308;25.288;2022-09-01T09:55:03;2.80;;;2.58;;
27071;SDS011;14613;46.308;25.288;2022-09-01T09:57:47;5.18;;;3.13;;
27071;SDS011;14613;46.308;25.288;2022-09-01T10:00:19;3.40;;;2.53;;
27071;SDS011;14613;46.308;25.288;2022-09-01T10:03:05;5.00;;;2.95;;
27071;SDS011;14613;46.308;25.288;2022-09-01T10:05:42;8.63;;;3.00;;
27071;SDS011;14613;46.308;25.288;2022-09-01T10:08:14;5.68;;;3.05;;
27071;SDS011;14613;46.308;25.288;2022-09-01T10:11:08;8.10;;;3.00;;
27071;SDS011;14613;46.308;25.288;2022-09-01T10:13:48;3.00;;;2.70;;
27071;SDS011;14613;46.308;25.288;2022-09-01T10:16:30;2.90;;;2.63;;
27071;SDS011;14613;46.308;25.288;2022-09-01T10:19:01;3.90;;;3.25;;
27071;SDS011;14613;46.308;25.288;2022-09-01T10:21:31;3.25;;;2.90;;
27071;SDS011;14613;46.308;25.288;2022-09-01T10:24:19;4.13;;;2.95;;
27071;SDS011;14613;46.308;25.288;2022-09-01T10:27:02;7.15;;;3.13;;
27071;SDS011;14613;46.308;25.288;2022-09-01T10:29:50;3.38;;;3.03;;
27071;SDS011;14613;46.308;25.288;2022-09-01T10:32:27;3.30;;;2.60;;
27071;SDS011;14613;46.308;25.288;2022-09-01T10:34:56;3.38;;;2.50;;
27071;SDS011;14613;46.308;25.288;2022-09-01T10:37:23;7.75;;;2.88;;
27071;SDS011;14613;46.308;25.288;2022-09-01T10:42:40;3.13;;;2.80;;
27071;SDS011;14613;46.308;25.288;2022-09-01T10:45:19;3.55;;;2.70;;
27071;SDS011;14613;46.308;25.288;2022-09-01T11:09:38;3.70;;;2.50;;
27071;SDS011;14613;46.308;25.288;2022-09-01T11:14:48;3.15;;;2.60;;
27071;SDS011;14613;46.308;25.288;2022-09-01T11:20:07;4.35;;;2.60;;
27071;SDS011;14613;46.308;25.288;2022-09-01T11:22:45;5.82;;;2.53;;
27071;SDS011;14613;46.308;25.288;2022-09-01T11:25:58;4.25;;;3.10;;
27071;SDS011;14613;46.308;25.288;2022-09-01T11:47:15;4.43;;;3.00;;
27071;SDS011;14613;46.308;25.288;2022-09-01T11:52:16;4.35;;;2.42;;
27071;SDS011;14613;46.308;25.288;2022-09-01T11:54:43;3.25;;;2.72;;
27071;SDS011;14613;46.308;25.288;2022-09-01T11:57:16;5.50;;;3.03;;
27071;SDS011;14613;46.308;25.288;2022-09-01T11:59:47;3.65;;;2.97;;
27071;SDS011;14613;46.308;25.288;2022-09-01T12:02:17;4.07;;;2.83;;
27071;SDS011;14613;46.308;25.288;2022-09-01T12:04:55;3.00;;;2.60;;
27071;SDS011;14613;46.308;25.288;2022-09-01T12:09:53;3.00;;;2.70;;
27071;SDS011;14613;46.308;25.288;2022-09-01T12:12:36;4.93;;;2.72;;
27071;SDS011;14613;46.308;25.288;2022-09-01T12:17:40;4.95;;;2.97;;
27071;SDS011;14613;46.308;25.288;2022-09-01T12:20:23;2.65;;;2.42;;
27071;SDS011;14613;46.308;25.288;2022-09-01T12:22:55;4.88;;;2.42;;
27071;SDS011;14613;46.308;25.288;2022-09-01T12:27:54;4.60;;;3.45;;
27071;SDS011;14613;46.308;25.288;2022-09-01T12:30:21;6.30;;;2.78;;
27071;SDS011;14613;46.308;25.288;2022-09-01T12:32:47;3.03;;;2.50;;
27071;SDS011;14613;46.308;25.288;2022-09-01T12:35:20;5.88;;;2.83;;
27071;SDS011;14613;46.308;25.288;2022-09-01T12:37:48;4.43;;;2.60;;
27071;SDS011;14613;46.308;25.288;2022-09-01T12:40:24;4.38;;;2.90;;
27071;SDS011;14613;46.308;25.288;2022-09-01T12:43:00;3.50;;;2.58;;
27071;SDS011;14613;46.308;25.288;2022-09-01T12:45:36;6.88;;;2.50;;
27071;SDS011;14613;46.308;25.288;2022-09-01T12:48:28;2.75;;;2.55;;
27071;SDS011;14613;46.308;25.288;2022-09-01T12:50:58;4.88;;;2.65;;
27071;SDS011;14613;46.308;25.288;2022-09-01T12:53:52;2.97;;;2.40;;
27071;SDS011;14613;46.308;25.288;2022-09-01T12:56:28;2.58;;;2.38;;
27071;SDS011;14613;46.308;25.288;2022-09-01T13:01:34;7.13;;;2.88;;
27071;SDS011;14613;46.308;25.288;2022-09-01T13:06:46;5.15;;;2.80;;
27071;SDS011;14613;46.308;25.288;2022-09-01T13:09:13;8.00;;;2.70;;
27071;SDS011;14613;46.308;25.288;2022-09-01T13:11:39;4.85;;;2.40;;
27071;SDS011;14613;46.308;25.288;2022-09-01T13:14:11;4.07;;;2.45;;
27071;SDS011;14613;46.308;25.288;2022-09-01T13:16:38;5.10;;;3.00;;
27071;SDS011;14613;46.308;25.288;2022-09-01T13:19:03;3.15;;;2.55;;
27071;SDS011;14613;46.308;25.288;2022-09-01T13:21:30;7.78;;;2.42;;
27071;SDS011;14613;46.308;25.288;2022-09-01T13:23:59;6.80;;;2.97;;
27071;SDS011;14613;46.308;25.288;2022-09-01T13:26:26;4.60;;;3.25;;
27071;SDS011;14613;46.308;25.288;2022-09-01T13:28:55;5.28;;;3.05;;
27071;SDS011;14613;46.308;25.288;2022-09-01T13:31:22;3.38;;;2.92;;
27071;SDS011;14613;46.308;25.288;2022-09-01T13:33:48;4.25;;;3.03;;
27071;SDS011;14613;46.308;25.288;2022-09-01T13:36:13;7.60;;;3.10;;
27071;SDS011;14613;46.308;25.288;2022-09-01T13:38:39;9.82;;;3.85;;
27071;SDS011;14613;46.308;25.288;2022-09-01T13:41:05;4.47;;;3.10;;
27071;SDS011;14613;46.308;25.288;2022-09-01T13:43:35;4.13;;;2.70;;
27071;SDS011;14613;46.308;25.288;2022-09-01T13:46:02;6.40;;;2.70;;
27071;SDS011;14613;46.308;25.288;2022-09-01T13:48:28;5.35;;;3.08;;
27071;SDS011;14613;46.308;25.288;2022-09-01T13:50:54;6.20;;;3.60;;
27071;SDS011;14613;46.308;25.288;2022-09-01T13:53:22;9.80;;;3.97;;
27071;SDS011;14613;46.308;25.288;2022-09-01T13:55:48;11.48;;;3.50;;
27071;SDS011;14613;46.308;25.288;2022-09-01T13:58:14;5.30;;;3.53;;
27071;SDS011;14613;46.308;25.288;2022-09-01T14:00:42;5.57;;;4.00;;
27071;SDS011;14613;46.308;25.288;2022-09-01T14:03:11;6.68;;;3.95;;
27071;SDS011;14613;46.308;25.288;2022-09-01T14:05:43;5.28;;;3.40;;
27071;SDS011;14613;46.308;25.288;2022-09-01T14:08:11;5.95;;;3.90;;
27071;SDS011;14613;46.308;25.288;2022-09-01T14:10:39;4.63;;;3.83;;
27071;SDS011;14613;46.308;25.288;2022-09-01T14:13:08;3.90;;;3.50;;
27071;SDS011;14613;46.308;25.288;2022-09-01T14:15:35;10.80;;;3.70;;
27071;SDS011;14613;46.308;25.288;2022-09-01T14:18:01;7.03;;;3.65;;
27071;SDS011;14613;46.308;25.288;2022-09-01T14:20:30;5.53;;;3.67;;
27071;SDS011;14613;46.308;25.288;2022-09-01T14:23:03;4.85;;;3.13;;
27071;SDS011;14613;46.308;25.288;2022-09-01T14:25:31;4.43;;;3.83;;
27071;SDS011;14613;46.308;25.288;2022-09-01T14:27:58;5.55;;;2.92;;
27071;SDS011;14613;46.308;25.288;2022-09-01T14:30:26;5.82;;;4.45;;
27071;SDS011;14613;46.308;25.288;2022-09-01T14:32:53;4.18;;;3.40;;
27071;SDS011;14613;46.308;25.288;2022-09-01T14:35:20;6.15;;;3.90;;
27071;SDS011;14613;46.308;25.288;2022-09-01T14:37:51;4.40;;;3.72;;
27071;SDS011;14613;46.308;25.288;2022-09-01T14:40:19;4.18;;;3.55;;
27071;SDS011;14613;46.308;25.288;2022-09-01T14:42:47;6.82;;;3.75;;
27071;SDS011;14613;46.308;25.288;2022-09-01T14:45:21;6.32;;;3.60;;
27071;SDS011;14613;46.308;25.288;2022-09-01T14:47:49;5.00;;;3.63;;
27071;SDS011;14613;46.308;25.288;2022-09-01T14:50:18;6.13;;;3.70;;
27071;SDS011;14613;46.308;25.288;2022-09-01T14:52:47;6.35;;;3.00;;
27071;SDS011;14613;46.308;25.288;2022-09-01T14:55:14;5.45;;;4.45;;
27071;SDS011;14613;46.308;25.288;2022-09-01T14:57:40;5.22;;;3.78;;
27071;SDS011;14613;46.308;25.288;2022-09-01T15:00:07;7.05;;;3.70;;
27071;SDS011;14613;46.308;25.288;2022-09-01T15:02:36;4.90;;;3.42;;
27071;SDS011;14613;46.308;25.288;2022-09-01T15:05:03;5.60;;;3.55;;
27071;SDS011;14613;46.308;25.288;2022-09-01T15:07:30;6.25;;;3.90;;
27071;SDS011;14613;46.308;25.288;2022-09-01T15:09:55;5.13;;;3.47;;
27071;SDS011;14613;46.308;25.288;2022-09-01T15:12:23;4.28;;;3.40;;
27071;SDS011;14613;46.308;25.288;2022-09-01T15:14:49;9.50;;;4.80;;
27071;SDS011;14613;46.308;25.288;2022-09-01T15:17:15;5.10;;;3.90;;
27071;SDS011;14613;46.308;25.288;2022-09-01T15:19:41;8.90;;;5.93;;
27071;SDS011;14613;46.308;25.288;2022-09-01T15:22:07;6.13;;;4.18;;
27071;SDS011;14613;46.308;25.288;2022-09-01T15:24:35;4.68;;;4.07;;
27071;SDS011;14613;46.308;25.288;2022-09-01T15:27:00;9.68;;;4.10;;
27071;SDS011;14613;46.308;25.288;2022-09-01T15:29:26;4.50;;;4.10;;
27071;SDS011;14613;46.308;25.288;2022-09-01T15:31:58;6.93;;;3.70;;
27071;SDS011;14613;46.308;25.288;2022-09-01T15:34:25;4.97;;;3.67;;
27071;SDS011;14613;46.308;25.288;2022-09-01T15:36:51;4.15;;;3.45;;
27071;SDS011;14613;46.308;25.288;2022-09-01T15:39:17;4.72;;;3.35;;
27071;SDS011;14613;46.308;25.288;2022-09-01T15:41:43;5.07;;;3.97;;
27071;SDS011;14613;46.308;25.288;2022-09-01T15:44:10;6.55;;;3.70;;
27071;SDS011;14613;46.308;25.288;2022-09-01T15:46:36;8.20;;;3.90;;
27071;SDS011;14613;46.308;25.288;2022-09-01T15:49:07;3.72;;;3.38;;
27071;SDS011;14613;46.308;25.288;2022-09-01T15:51:35;6.32;;;3.72;;
27071;SDS011;14613;46.308;25.288;2022-09-01T15:54:04;5.32;;;3.97;;
27071;SDS011;14613;46.308;25.288;2022-09-01T15:56:32;4.78;;;3.65;;
27071;SDS011;14613;46.308;25.288;2022-09-01T15:58:58;5.43;;;4.05;;
27071;SDS011;14613;46.308;25.288;2022-09-01T16:01:25;4.85;;;4.30;;
27071;SDS011;14613;46.308;25.288;2022-09-01T16:03:53;9.20;;;4.60;;
27071;SDS011;14613;46.308;25.288;2022-09-01T16:06:20;4.75;;;3.78;;
27071;SDS011;14613;46.308;25.288;2022-09-01T16:08:47;8.40;;;3.47;;
27071;SDS011;14613;46.308;25.288;2022-09-01T16:11:13;6.32;;;4.03;;
27071;SDS011;14613;46.308;25.288;2022-09-01T16:13:40;5.00;;;3.83;;